createdAt,value
2023-05-27T00:02:16.694Z,13.64
2023-05-27T00:04:43.324Z,13.60
2023-05-27T00:07:09.944Z,13.52
2023-05-27T00:09:36.619Z,13.47
2023-05-27T00:12:03.329Z,13.43
2023-05-27T00:14:29.912Z,13.38
2023-05-27T00:16:56.543Z,13.33
2023-05-27T00:19:24.791Z,13.31
2023-05-27T00:21:55.887Z,13.24
2023-05-27T00:24:22.863Z,13.16
2023-05-27T00:26:49.854Z,13.15
2023-05-27T00:29:19.715Z,13.08
2023-05-27T00:31:46.312Z,13.09
2023-05-27T00:34:12.934Z,13.01
2023-05-27T00:36:39.509Z,12.96
2023-05-27T00:39:06.977Z,12.94
2023-05-27T00:41:34.013Z,12.88
2023-05-27T00:44:00.626Z,12.80
2023-05-27T00:46:27.242Z,12.74
2023-05-27T00:48:53.952Z,12.70
2023-05-27T00:51:21.188Z,12.58
2023-05-27T00:53:48.057Z,12.53
2023-05-27T00:56:16.728Z,12.48
2023-05-27T00:58:44.365Z,12.46
2023-05-27T01:01:11.109Z,12.41
2023-05-27T01:03:37.977Z,12.32
2023-05-27T01:06:44.639Z,12.31
2023-05-27T01:09:29.797Z,12.27
2023-05-27T01:12:18.005Z,12.20
2023-05-27T01:14:46.495Z,12.16
2023-05-27T01:17:13.954Z,12.13
2023-05-27T01:19:46.360Z,12.10
2023-05-27T01:22:14.561Z,12.04
2023-05-27T01:24:44.320Z,12.04
2023-05-27T01:27:16.630Z,11.97
2023-05-27T01:29:43.792Z,11.94
2023-05-27T01:32:44.779Z,11.89
2023-05-27T01:35:20.701Z,11.89
2023-05-27T01:37:49.123Z,11.84
2023-05-27T01:40:15.926Z,11.78
2023-05-27T01:42:44.433Z,11.76
2023-05-27T01:45:11.851Z,11.76
2023-05-27T01:47:38.404Z,11.73
2023-05-27T01:50:06.163Z,11.68
2023-05-27T01:52:32.752Z,11.65
2023-05-27T01:54:59.387Z,11.61
2023-05-27T01:57:26.465Z,11.58
2023-05-27T01:59:53.257Z,11.53
2023-05-27T02:02:19.926Z,11.47
2023-05-27T02:04:46.557Z,11.45
2023-05-27T02:07:13.163Z,11.40
2023-05-27T02:09:39.767Z,11.39
2023-05-27T02:12:07.468Z,11.36
2023-05-27T02:14:35.428Z,11.32
2023-05-27T02:17:05.210Z,11.30
2023-05-27T02:19:32.154Z,11.26
2023-05-27T02:21:58.697Z,11.24
2023-05-27T02:24:25.254Z,11.20
2023-05-27T02:26:51.782Z,11.12
2023-05-27T02:29:18.333Z,11.13
2023-05-27T02:31:44.874Z,11.12
2023-05-27T02:34:11.444Z,11.08
2023-05-27T02:36:38.011Z,11.08
2023-05-27T02:39:04.518Z,11.02
2023-05-27T02:41:31.089Z,10.96
2023-05-27T02:43:57.650Z,10.92
2023-05-27T02:46:24.310Z,10.89
2023-05-27T02:48:51.086Z,10.78
2023-05-27T02:51:17.699Z,10.73
2023-05-27T02:53:44.195Z,10.75
2023-05-27T02:56:10.748Z,10.69
2023-05-27T02:58:37.284Z,10.67
2023-05-27T03:01:03.830Z,10.62
2023-05-27T03:05:57.226Z,10.57
2023-05-27T03:08:23.799Z,10.53
2023-05-27T03:10:50.418Z,10.55
2023-05-27T03:13:17.485Z,10.51
2023-05-27T03:15:44.057Z,10.48
2023-05-27T03:18:10.616Z,10.43
2023-05-27T03:20:37.186Z,10.40
2023-05-27T03:23:03.932Z,10.42
2023-05-27T03:25:30.580Z,10.39
2023-05-27T03:27:57.164Z,10.36
2023-05-27T03:30:24.218Z,10.31
2023-05-27T03:32:50.848Z,10.28
2023-05-27T03:35:17.441Z,10.29
2023-05-27T03:37:44.121Z,10.32
2023-05-27T03:40:11.496Z,10.25
2023-05-27T03:42:38.107Z,10.20
2023-05-27T03:45:05.129Z,10.19
2023-05-27T03:47:31.700Z,10.10
2023-05-27T03:49:58.313Z,10.06
2023-05-27T03:52:25.000Z,10.00
2023-05-27T03:54:51.509Z,10.01
2023-05-27T03:57:18.123Z,10.00
2023-05-27T03:59:44.705Z,9.97
2023-05-27T04:02:11.281Z,9.93
2023-05-27T04:04:37.975Z,9.94
2023-05-27T04:07:04.762Z,9.95
2023-05-27T04:09:31.302Z,9.90
2023-05-27T04:11:59.161Z,9.93
2023-05-27T04:14:26.178Z,9.94
2023-05-27T04:16:53.540Z,9.90
2023-05-27T04:19:20.436Z,9.93
2023-05-27T04:21:47.161Z,9.97
2023-05-27T04:24:13.792Z,9.96
2023-05-27T04:26:42.137Z,9.97
2023-05-27T04:29:10.490Z,9.99
2023-05-27T04:31:37.846Z,10.01
2023-05-27T04:34:04.905Z,10.03
2023-05-27T04:36:34.617Z,10.04
2023-05-27T04:39:05.427Z,10.03
2023-05-27T04:41:33.887Z,10.05
2023-05-27T04:44:03.564Z,10.07
2023-05-27T04:46:30.183Z,10.08
2023-05-27T04:48:56.959Z,10.09
2023-05-27T04:51:23.674Z,10.12
2023-05-27T04:53:50.285Z,10.11
2023-05-27T04:56:18.376Z,10.11
2023-05-27T04:58:47.572Z,10.12
2023-05-27T05:01:22.582Z,10.12
2023-05-27T05:03:53.666Z,10.14
2023-05-27T05:06:22.154Z,10.16
2023-05-27T05:08:49.244Z,10.18
2023-05-27T05:11:16.630Z,10.19
2023-05-27T05:13:43.483Z,10.19
2023-05-27T05:16:10.263Z,10.21
2023-05-27T05:18:36.985Z,10.24
2023-05-27T05:21:03.929Z,10.25
2023-05-27T05:23:31.296Z,10.26
2023-05-27T05:25:59.834Z,10.29
2023-05-27T05:28:26.586Z,10.33
2023-05-27T05:30:53.422Z,10.36
2023-05-27T05:33:22.246Z,10.38
2023-05-27T05:35:50.402Z,10.41
2023-05-27T05:38:16.904Z,10.44
2023-05-27T05:40:49.752Z,10.46
2023-05-27T05:43:16.896Z,10.49
2023-05-27T05:45:43.545Z,10.53
2023-05-27T05:48:10.123Z,10.59
2023-05-27T05:50:36.750Z,10.62
2023-05-27T05:53:03.800Z,10.68
2023-05-27T05:55:30.372Z,10.71
2023-05-27T05:57:57.406Z,10.74
2023-05-27T06:00:25.075Z,10.80
2023-05-27T06:02:51.708Z,10.84
2023-05-27T06:05:18.560Z,10.88
2023-05-27T06:07:45.088Z,10.92
2023-05-27T06:10:12.064Z,10.95
2023-05-27T06:12:38.645Z,10.98
2023-05-27T06:15:05.630Z,11.02
2023-05-27T06:17:32.202Z,11.04
2023-05-27T06:19:58.848Z,11.08
2023-05-27T06:22:25.393Z,11.12
2023-05-27T06:24:51.889Z,11.16
2023-05-27T06:27:18.566Z,11.20
2023-05-27T06:29:45.521Z,11.24
2023-05-27T06:32:12.109Z,11.30
2023-05-27T06:34:38.699Z,11.35
2023-05-27T06:37:05.572Z,11.39
2023-05-27T06:39:32.083Z,11.45
2023-05-27T06:41:58.655Z,11.49
2023-05-27T06:44:25.144Z,11.54
2023-05-27T06:46:53.736Z,11.59
2023-05-27T06:49:20.779Z,11.64
2023-05-27T06:51:47.535Z,11.69
2023-05-27T06:54:14.106Z,11.74
2023-05-27T06:56:40.690Z,11.79
2023-05-27T06:59:07.225Z,11.84
2023-05-27T07:01:34.102Z,11.90
2023-05-27T07:04:00.662Z,11.98
2023-05-27T07:06:27.316Z,12.05
2023-05-27T07:08:53.879Z,12.12
2023-05-27T07:11:20.495Z,12.20
2023-05-27T07:13:47.111Z,12.31
2023-05-27T07:16:13.736Z,12.41
2023-05-27T07:18:40.451Z,12.52
2023-05-27T07:21:07.225Z,12.63
2023-05-27T07:23:33.725Z,12.76
2023-05-27T07:26:00.304Z,12.89
2023-05-27T07:28:27.029Z,13.04
2023-05-27T07:30:53.736Z,13.17
2023-05-27T07:33:20.434Z,13.30
2023-05-27T07:35:46.988Z,13.43
2023-05-27T07:38:13.508Z,13.59
2023-05-27T07:40:40.257Z,13.74
2023-05-27T07:43:06.808Z,13.89
2023-05-27T07:45:33.437Z,14.05
2023-05-27T07:48:00.234Z,14.21
2023-05-27T07:50:26.977Z,14.39
2023-05-27T07:52:53.645Z,14.55
2023-05-27T07:55:20.529Z,14.72
2023-05-27T07:57:47.138Z,14.90
2023-05-27T08:00:14.134Z,15.07
2023-05-27T08:02:40.894Z,15.27
2023-05-27T08:05:08.322Z,15.47
2023-05-27T08:07:34.821Z,15.67
2023-05-27T08:10:01.802Z,15.90
2023-05-27T08:12:28.409Z,16.11
2023-05-27T08:14:54.935Z,16.33
2023-05-27T08:17:21.700Z,16.51
2023-05-27T08:19:48.313Z,16.74
2023-05-27T08:22:14.921Z,16.94
2023-05-27T08:24:41.686Z,17.13
2023-05-27T08:27:16.981Z,17.34
2023-05-27T08:29:44.597Z,17.52
2023-05-27T08:32:11.937Z,17.72
2023-05-27T08:34:39.903Z,17.92
2023-05-27T08:37:06.774Z,18.09
2023-05-27T08:39:33.360Z,18.28
2023-05-27T08:42:01.493Z,18.47
2023-05-27T08:44:28.089Z,18.66
2023-05-27T08:46:57.049Z,18.85
2023-05-27T08:49:24.095Z,19.03
2023-05-27T08:51:54.511Z,19.23
2023-05-27T08:54:21.631Z,19.44
2023-05-27T08:56:51.765Z,19.64
2023-05-27T08:59:18.366Z,19.84
2023-05-27T09:01:45.220Z,20.02
2023-05-27T09:04:11.956Z,20.21
2023-05-27T09:06:38.700Z,20.39
2023-05-27T09:09:07.815Z,20.56
2023-05-27T09:11:36.732Z,20.73
2023-05-27T09:14:04.130Z,20.89
2023-05-27T09:16:30.832Z,21.05
2023-05-27T09:18:58.555Z,21.20
2023-05-27T09:21:27.316Z,21.38
2023-05-27T09:23:58.203Z,21.54
2023-05-27T09:26:24.957Z,21.72
2023-05-27T09:28:51.754Z,21.86
2023-05-27T09:31:18.379Z,22.03
2023-05-27T09:33:44.932Z,22.19
2023-05-27T09:36:11.734Z,22.35
2023-05-27T09:38:38.643Z,22.50
2023-05-27T09:41:05.310Z,22.67
2023-05-27T09:43:32.189Z,22.82
2023-05-27T09:46:04.012Z,22.99
2023-05-27T09:48:35.036Z,23.14
2023-05-27T09:51:02.313Z,23.31
2023-05-27T09:53:29.359Z,23.45
2023-05-27T09:55:57.159Z,23.61
2023-05-27T09:58:25.148Z,23.77
2023-05-27T10:00:52.262Z,23.93
2023-05-27T10:03:22.695Z,24.08
2023-05-27T10:05:51.865Z,24.21
2023-05-27T10:08:26.028Z,24.38
2023-05-27T10:10:53.585Z,24.54
2023-05-27T10:13:21.854Z,24.70
2023-05-27T10:15:53.406Z,24.83
2023-05-27T10:18:25.257Z,24.96
2023-05-27T10:20:52.560Z,25.07
2023-05-27T10:23:28.132Z,25.21
2023-05-27T10:25:57.688Z,25.34
2023-05-27T10:28:40.473Z,25.51
2023-05-27T10:31:16.548Z,25.65
2023-05-27T10:33:48.368Z,25.78
2023-05-27T10:36:24.148Z,25.93
2023-05-27T10:39:05.495Z,26.08
2023-05-27T10:41:52.128Z,26.23
2023-05-27T10:44:37.338Z,26.37
2023-05-27T10:47:12.431Z,26.49
2023-05-27T10:49:40.968Z,26.60
2023-05-27T10:52:14.734Z,26.71
2023-05-27T10:54:47.679Z,26.81
2023-05-27T10:57:15.579Z,26.91
2023-05-27T10:59:54.985Z,27.03
2023-05-27T11:02:23.535Z,27.12
2023-05-27T11:04:50.206Z,27.21
2023-05-27T11:07:21.399Z,27.32
2023-05-27T11:09:50.179Z,27.42
2023-05-27T11:12:17.877Z,27.51
2023-05-27T11:14:53.246Z,27.61
2023-05-27T11:17:21.120Z,27.70
2023-05-27T11:19:47.933Z,27.77
2023-05-27T11:22:16.064Z,27.85
2023-05-27T11:24:42.924Z,27.91
2023-05-27T11:27:15.825Z,28.01
2023-05-27T11:29:54.350Z,28.12
2023-05-27T11:32:21.792Z,28.22
2023-05-27T11:34:48.922Z,28.31
2023-05-27T11:37:16.784Z,28.40
2023-05-27T11:39:53.658Z,28.46
2023-05-27T11:42:24.688Z,28.57
2023-05-27T11:44:53.486Z,28.63
2023-05-27T11:47:20.886Z,28.68
2023-05-27T11:49:49.685Z,28.75
2023-05-27T11:52:16.509Z,28.83
2023-05-27T11:54:46.663Z,28.84
2023-05-27T11:57:16.839Z,28.90
2023-05-27T11:59:43.478Z,28.97
2023-05-27T12:02:10.200Z,29.01
2023-05-27T12:04:36.812Z,29.08
2023-05-27T12:07:12.362Z,29.12
2023-05-27T12:09:46.891Z,29.23
2023-05-27T12:12:13.420Z,29.36
2023-05-27T12:14:39.922Z,29.51
2023-05-27T12:17:06.507Z,29.65
2023-05-27T12:19:35.464Z,29.78
2023-05-27T12:22:02.192Z,29.90
2023-05-27T12:24:28.774Z,30.02
2023-05-27T12:26:55.621Z,30.13
2023-05-27T12:29:25.342Z,30.25
2023-05-27T12:31:52.167Z,30.39
2023-05-27T12:34:19.411Z,30.52
2023-05-27T12:36:46.401Z,30.62
2023-05-27T12:39:13.015Z,30.71
2023-05-27T12:41:39.759Z,30.85
2023-05-27T12:44:06.425Z,30.99
2023-05-27T12:46:33.205Z,31.10
2023-05-27T12:48:59.987Z,31.21
2023-05-27T12:51:26.694Z,31.30
2023-05-27T12:53:53.767Z,31.41
2023-05-27T12:56:20.392Z,31.54
2023-05-27T12:58:46.997Z,31.66
2023-05-27T13:01:14.204Z,31.81
2023-05-27T13:03:40.961Z,31.96
2023-05-27T13:06:08.168Z,32.10
2023-05-27T13:08:34.826Z,32.21
2023-05-27T13:11:01.478Z,32.32
2023-05-27T13:13:28.299Z,32.43
2023-05-27T13:15:55.009Z,32.53
2023-05-27T13:18:22.161Z,32.64
2023-05-27T13:20:48.973Z,32.77
2023-05-27T13:23:15.740Z,32.88
2023-05-27T13:25:42.248Z,33.00
2023-05-27T13:28:08.820Z,33.09
2023-05-27T13:30:35.550Z,33.17
2023-05-27T13:33:02.840Z,33.25
2023-05-27T13:35:29.401Z,33.31
2023-05-27T13:37:56.627Z,33.38
2023-05-27T13:40:23.309Z,33.47
2023-05-27T13:42:49.860Z,33.56
2023-05-27T13:45:16.470Z,33.64
2023-05-27T13:47:45.607Z,33.70
2023-05-27T13:50:12.356Z,33.76
2023-05-27T13:52:40.019Z,33.83
2023-05-27T13:55:07.256Z,33.91
2023-05-27T13:57:33.768Z,33.97
2023-05-27T14:00:00.463Z,34.06
2023-05-27T14:02:27.062Z,34.15
2023-05-27T14:04:53.749Z,34.23
2023-05-27T14:07:20.435Z,34.31
2023-05-27T14:09:47.052Z,34.39
2023-05-27T14:12:13.555Z,34.47
2023-05-27T14:14:40.713Z,34.53
2023-05-27T14:17:08.601Z,34.60
2023-05-27T14:19:35.381Z,34.68
2023-05-27T14:22:02.000Z,34.76
2023-05-27T14:24:28.590Z,34.85
2023-05-27T14:26:55.135Z,34.93
2023-05-27T14:29:22.037Z,35.01
2023-05-27T14:31:48.654Z,35.05
2023-05-27T14:34:15.280Z,35.07
2023-05-27T14:36:42.029Z,35.12
2023-05-27T14:39:09.152Z,35.13
2023-05-27T14:41:35.841Z,35.15
2023-05-27T14:44:02.376Z,35.20
2023-05-27T14:46:28.912Z,35.20
2023-05-27T14:48:55.606Z,35.24
2023-05-27T14:51:22.192Z,35.24
2023-05-27T14:53:48.732Z,35.22
2023-05-27T14:56:15.596Z,35.21
2023-05-27T14:58:43.433Z,35.17
2023-05-27T15:01:12.191Z,35.08
2023-05-27T15:03:38.964Z,35.02
2023-05-27T15:06:05.779Z,34.96
2023-05-27T15:08:32.397Z,34.86
2023-05-27T15:10:59.022Z,34.79
2023-05-27T15:13:26.944Z,34.72
2023-05-27T15:15:53.812Z,34.62
2023-05-27T15:18:21.162Z,34.51
2023-05-27T15:20:48.897Z,34.40
2023-05-27T15:23:15.496Z,34.32
2023-05-27T15:25:42.403Z,34.25
2023-05-27T15:28:11.725Z,34.18
2023-05-27T15:30:39.440Z,34.10
2023-05-27T15:33:06.888Z,34.04
2023-05-27T15:35:33.503Z,33.97
2023-05-27T15:38:00.986Z,33.88
2023-05-27T15:40:27.666Z,33.81
2023-05-27T15:42:54.209Z,33.77
2023-05-27T15:45:20.799Z,33.71
2023-05-27T15:47:49.456Z,33.64
2023-05-27T15:50:16.383Z,33.53
2023-05-27T15:52:43.378Z,33.47
2023-05-27T15:55:09.975Z,33.42
2023-05-27T15:57:36.587Z,33.33
2023-05-27T16:00:03.740Z,33.27
2023-05-27T16:02:30.925Z,33.21
2023-05-27T16:04:57.605Z,33.13
2023-05-27T16:07:24.234Z,33.04
2023-05-27T16:09:50.784Z,32.97
2023-05-27T16:12:17.394Z,32.90
2023-05-27T16:14:43.911Z,32.85
2023-05-27T16:17:10.720Z,32.76
2023-05-27T16:19:37.288Z,32.71
2023-05-27T16:22:04.374Z,32.64
2023-05-27T16:24:31.981Z,32.61
2023-05-27T16:26:58.762Z,32.53
2023-05-27T16:29:25.845Z,32.45
2023-05-27T16:31:52.567Z,32.38
2023-05-27T16:34:19.158Z,32.26
2023-05-27T16:36:46.635Z,32.20
2023-05-27T16:39:13.168Z,32.13
2023-05-27T16:41:39.742Z,32.07
2023-05-27T16:44:06.372Z,32.04
2023-05-27T16:46:34.165Z,32.00
2023-05-27T16:49:01.817Z,31.94
2023-05-27T16:51:28.393Z,31.87
2023-05-27T16:53:55.003Z,31.78
2023-05-27T16:56:21.593Z,31.72
2023-05-27T16:58:48.231Z,31.63
2023-05-27T17:01:15.148Z,31.53
2023-05-27T17:03:41.883Z,31.44
2023-05-27T17:06:08.534Z,31.33
2023-05-27T17:08:35.172Z,31.27
2023-05-27T17:11:01.775Z,31.20
2023-05-27T17:13:28.504Z,31.12
2023-05-27T17:15:55.609Z,31.06
2023-05-27T17:18:22.412Z,30.99
2023-05-27T17:20:49.069Z,30.93
2023-05-27T17:23:15.817Z,30.85
2023-05-27T17:25:42.413Z,30.72
2023-05-27T17:28:08.942Z,30.68
2023-05-27T17:30:38.834Z,30.58
2023-05-27T17:33:06.369Z,30.49
2023-05-27T17:35:32.987Z,30.33
2023-05-27T17:38:00.350Z,30.21
2023-05-27T17:40:26.963Z,30.06
2023-05-27T17:42:53.565Z,29.91
2023-05-27T17:45:20.100Z,29.76
2023-05-27T17:47:46.748Z,29.65
2023-05-27T17:50:13.428Z,29.51
2023-05-27T17:52:39.975Z,29.38
2023-05-27T17:55:07.088Z,29.24
2023-05-27T17:57:33.623Z,29.08
2023-05-27T18:00:00.324Z,28.93
2023-05-27T18:02:26.946Z,28.78
2023-05-27T18:04:53.673Z,28.62
2023-05-27T18:07:20.495Z,28.52
2023-05-27T18:09:47.070Z,28.42
2023-05-27T18:12:13.662Z,28.31
2023-05-27T18:14:40.208Z,28.19
2023-05-27T18:17:07.163Z,28.12
2023-05-27T18:19:33.972Z,28.02
2023-05-27T18:22:00.692Z,27.93
2023-05-27T18:24:27.383Z,27.79
2023-05-27T18:26:54.846Z,27.66
2023-05-27T18:29:21.713Z,27.51
2023-05-27T18:31:48.522Z,27.35
2023-05-27T18:34:16.277Z,27.23
2023-05-27T18:36:42.819Z,27.10
2023-05-27T18:39:09.425Z,27.00
2023-05-27T18:41:36.287Z,26.88
2023-05-27T18:44:02.916Z,26.75
2023-05-27T18:46:29.584Z,26.63
2023-05-27T18:48:56.357Z,26.49
2023-05-27T18:51:22.939Z,26.36
2023-05-27T18:53:49.776Z,26.24
2023-05-27T18:56:16.554Z,26.13
2023-05-27T18:58:43.236Z,25.99
2023-05-27T19:01:09.840Z,25.84
2023-05-27T19:03:36.575Z,25.71
2023-05-27T19:06:04.669Z,25.57
2023-05-27T19:08:31.478Z,25.43
2023-05-27T19:10:58.253Z,25.28
2023-05-27T19:13:24.835Z,25.14
2023-05-27T19:15:51.415Z,24.99
2023-05-27T19:18:18.280Z,24.87
2023-05-27T19:20:45.080Z,24.70
2023-05-27T19:23:12.769Z,24.57
2023-05-27T19:25:39.349Z,24.44
2023-05-27T19:28:06.281Z,24.33
2023-05-27T19:30:33.016Z,24.20
2023-05-27T19:32:59.827Z,24.07
2023-05-27T19:35:26.436Z,23.97
2023-05-27T19:37:53.321Z,23.86
2023-05-27T19:40:20.060Z,23.75
2023-05-27T19:42:46.887Z,23.67
2023-05-27T19:45:13.585Z,23.59
2023-05-27T19:47:40.187Z,23.48
2023-05-27T19:50:07.881Z,23.39
2023-05-27T19:52:34.819Z,23.32
2023-05-27T19:55:02.270Z,23.23
2023-05-27T19:57:29.321Z,23.16
2023-05-27T19:59:56.001Z,23.12
2023-05-27T20:02:22.824Z,23.04
2023-05-27T20:04:49.564Z,23.00
2023-05-27T20:07:16.245Z,22.89
2023-05-27T20:09:44.109Z,22.81
2023-05-27T20:12:10.743Z,22.73
2023-05-27T20:14:37.337Z,22.66
2023-05-27T20:17:04.397Z,22.56
2023-05-27T20:19:31.168Z,22.50
2023-05-27T20:21:57.756Z,22.43
2023-05-27T20:24:24.304Z,22.35
2023-05-27T20:26:50.869Z,22.25
2023-05-27T20:29:17.764Z,22.15
2023-05-27T20:31:44.445Z,22.04
2023-05-27T20:34:11.013Z,21.96
2023-05-27T20:36:37.561Z,21.84
2023-05-27T20:39:04.343Z,21.73
2023-05-27T20:41:31.047Z,21.65
2023-05-27T20:44:00.088Z,21.55
2023-05-27T20:46:28.309Z,21.43
2023-05-27T20:48:56.571Z,21.36
2023-05-27T20:51:24.585Z,21.25
2023-05-27T20:53:54.152Z,21.16
2023-05-27T20:56:24.112Z,21.06
2023-05-27T20:58:51.173Z,20.96
2023-05-27T21:01:17.832Z,20.88
2023-05-27T21:03:44.573Z,20.77
2023-05-27T21:06:12.802Z,20.67
2023-05-27T21:08:39.678Z,20.61
2023-05-27T21:11:06.459Z,20.52
2023-05-27T21:13:33.061Z,20.40
2023-05-27T21:15:59.800Z,20.33
2023-05-27T21:18:26.437Z,20.27
2023-05-27T21:20:55.760Z,20.14
2023-05-27T21:23:23.288Z,20.07
2023-05-27T21:25:51.093Z,19.98
2023-05-27T21:28:17.682Z,19.94
2023-05-27T21:30:45.324Z,19.88
2023-05-27T21:33:12.155Z,19.79
2023-05-27T21:35:38.894Z,19.72
2023-05-27T21:38:07.052Z,19.68
2023-05-27T21:40:33.779Z,19.60
2023-05-27T21:43:00.341Z,19.55
2023-05-27T21:45:28.460Z,19.49
2023-05-27T21:47:55.218Z,19.37
2023-05-27T21:50:22.090Z,19.33
2023-05-27T21:52:48.660Z,19.28
2023-05-27T21:55:15.337Z,19.20
2023-05-27T21:57:42.100Z,19.12
2023-05-27T22:00:17.310Z,19.08
2023-05-27T22:02:45.120Z,19.01
2023-05-27T22:05:14.291Z,18.96
2023-05-27T22:07:41.422Z,18.89
2023-05-27T22:10:09.329Z,18.85
2023-05-27T22:12:36.144Z,18.79
2023-05-27T22:15:02.836Z,18.79
2023-05-27T22:17:29.425Z,18.73
2023-05-27T22:19:56.028Z,18.66
2023-05-27T22:22:22.697Z,18.64
2023-05-27T22:24:49.981Z,18.59
2023-05-27T22:27:17.028Z,18.55
2023-05-27T22:29:43.715Z,18.49
2023-05-27T22:32:10.349Z,18.45
2023-05-27T22:34:36.866Z,18.38
2023-05-27T22:37:04.775Z,18.36
2023-05-27T22:39:31.422Z,18.32
2023-05-27T22:41:58.067Z,18.28
2023-05-27T22:44:24.572Z,18.24
2023-05-27T22:46:51.323Z,18.21
2023-05-27T22:49:17.906Z,18.20
2023-05-27T22:51:44.476Z,18.13
2023-05-27T22:54:11.268Z,18.11
2023-05-27T22:56:37.926Z,18.12
2023-05-27T22:59:04.448Z,18.11
2023-05-27T23:01:31.029Z,18.06
2023-05-27T23:03:57.707Z,18.04
2023-05-27T23:06:24.491Z,18.01
2023-05-27T23:08:51.108Z,17.98
2023-05-27T23:11:17.617Z,17.92
2023-05-27T23:13:44.384Z,17.89
2023-05-27T23:16:11.128Z,17.81
2023-05-27T23:18:38.374Z,17.72
2023-05-27T23:21:05.857Z,17.62
2023-05-27T23:23:32.875Z,17.57
2023-05-27T23:25:59.842Z,17.47
2023-05-27T23:28:26.628Z,17.44
2023-05-27T23:30:53.253Z,17.40
2023-05-27T23:33:20.668Z,17.27
2023-05-27T23:35:47.414Z,17.21
2023-05-27T23:38:14.041Z,17.18
2023-05-27T23:40:40.595Z,17.11
2023-05-27T23:43:07.142Z,17.03
2023-05-27T23:45:33.884Z,16.92
2023-05-27T23:48:00.553Z,16.87
2023-05-27T23:50:27.336Z,16.82
2023-05-27T23:52:53.972Z,16.77
2023-05-27T23:55:20.742Z,16.68
2023-05-27T23:57:47.298Z,16.62
